Airfield :
LOGIN :

Register | Disclaimer

   EN    FR    IT 

 










Legend :    VFR   Marginal VFR   IFR   Intensive IFR   Very Intensive IFR
Visi :
Ceiling :
>= 8 km
>= 3000ft
5 to 8 km
1000 to 3000 ft
1500m to 5 km
500 to 1000 ft
800 to 1500m
200 to 500 ft
< 800m
< 200 ft
Symbols :   Thunderstorms  Fog  Heavy snow  Heavy precipitations  Wind > 20 kt
SIGMETs :     Misc.  Thunderstorms  Icing  Turbulence  Mountain Waves  Volcanic Ashes







- Airport Elevation : 102 ft
- IATA code : KEL


EDHK - Holtenau

CURRENT METAR :
  • 231320Z 21009KT 180V240 7000 BKN003 OVC007 06/05 Q1017

EXPIRED METARs :
  • 231250Z 21009KT 180V240 5000 BR BKN002 OVC006 05/05 Q1018
  • 231220Z 20008KT 2600 BR BKN001 OVC002 05/05 Q1018
  • 231150Z 20007KT 0700 0650 R26/0900V1400U OVC002 04/04 Q1018
  • 231120Z 20006KT 170V230 0450 R26/0800N FG OVC001 04/04 Q1018
  • 231050Z 19005KT 150V210 0500 FG OVC001 04/03 Q1018

TAF TAF EDHK
Valid from the 23 at 12:00 until the 23 at 18:00 UTC


231100Z 2312/2318 18006KT 0300 FG OVC001
BECMG 2312/2315 2500 BR OVC004
BECMG 2315/2318 4000 BKN006
No reported NOTAMs for that airfield.



MET'MAP, your aeronautical weather chart ! - Copyright ORBIFLY December 2007 - Disclaimer

ORBIFLY MET'MAP TEAM :

Programming & Development : Alexandra Zaïnal
Concept & Development : Baudouin d'Aumeries
Co-Development & Prog : Marc-Olivier Méhu
Technical & hardware support : Manuel Goepfert

Contact : metmap@orbifly.com




SOURCES & CREDITS :

   NOAA